Weather History for Tacoma, WA

Change the Weather History Date:

Wednesday, November 21, 2012

  Actual Average Record
Temperature  
Mean Temperature 42 °F -  
Max Temperature 47 °F 47 °F 60 °F (2002)
Min Temperature 35 °F 34 °F 18 °F (1978)
Degree Days  
Heating Degree Days 24    
Moisture  
Dew Point 40 °F    
Average Humidity 89    
Maximum Humidity 99    
Minimum Humidity 76    
Precipitation  
Precipitation 0.27 in - - ()
Sea Level Pressure  
Sea Level Pressure 29.87 in    
Wind  
Wind Speed 11 mph (SSW)    
Max Wind Speed 25 mph    
Max Gust Speed 43 mph    
Visibility 10 miles    
Events Rain    
Averages and records for this station are not official NWS values.
T = Trace of Precipitation, MM = Missing Value Source: NWS Daily Summary

Daily Weather History Graph

Daily Weather History Graph

Search for Another Location

Airport:

Trip Planner

Search our weather history database for the weather conditions in past years. The results will help you decide how hot, cold, wet, or windy it might be!

Date:

Astronomy

Nov. 21, 2012 Rise Set
Actual Time 7:23 AM PST 4:28 PM PST
Civil Twilight 6:49 AM PST 5:02 PM PST
Nautical Twilight 6:11 AM PST 5:39 PM PST
Astronomical Twilight 5:35 AM PST 6:16 PM PST
Moon 1:09 PM PST (11/21) 12:23 AM PST (11/21)
Length of Visible Light 10h 13m
Length of Day
9h 05m
Waxing Gibbous, 63% of the Moon is Illuminated
Nov 21
Waxing Gibbous
Nov 28
Full
Dec 6
Last Quarter
Dec 13
New
Dec 19
First Quarter

Hourly Weather History & Observations

Time (PST) Temp. Windchill Dew Point Humidity Pressure Visibility Wind Dir Wind Speed Gust Speed Precip Events Conditions
12:57 AM 42.8 °F - 39.2 °F 87% 29.52 in 10.0 mi Calm Calm - N/A Rain Light Rain
12:58 AM 43.3 °F - 39.2 °F 85% 29.54 in 10.0 mi Calm Calm - N/A Rain Light Rain
1:58 AM 44.4 °F 42.9 °F 40.8 °F 87% 29.54 in 10.0 mi SSE 3.5 mph - 0.01 in Rain Light Rain
2:01 AM 44.6 °F 42.2 °F 41.0 °F 87% 29.53 in 10.0 mi South 4.6 mph - N/A   Mostly Cloudy
2:58 AM 46.2 °F 41.2 °F 41.0 °F 82% 29.57 in 10.0 mi South 10.4 mph - 0.00 in   Mostly Cloudy
3:58 AM 47.5 °F - 40.1 °F 76% 29.59 in 10.0 mi South 16.1 mph 29.9 mph 0.01 in   Overcast
4:33 AM 46.4 °F 39.5 °F 39.2 °F 76% 29.57 in 10.0 mi South 17.3 mph 21.9 mph N/A Rain Light Rain
4:58 AM 46.4 °F 37.9 °F 39.7 °F 78% 29.61 in 10.0 mi South 25.3 mph 36.8 mph 0.00 in Rain Light Rain
5:18 AM 44.6 °F 36.1 °F 41.0 °F 87% 29.63 in 5.0 mi South 21.9 mph 42.6 mph N/A Rain Light Rain
5:23 AM 44.6 °F 36.4 °F 41.0 °F 87% 29.64 in 6.0 mi South 20.7 mph 35.7 mph N/A   Overcast
5:28 AM 44.6 °F 37.2 °F 41.0 °F 87% 29.65 in 10.0 mi SSW 17.3 mph 33.4 mph N/A   Overcast
5:30 AM 44.6 °F 37.2 °F 41.0 °F 87% 29.65 in 10.0 mi SSW 17.3 mph 28.8 mph N/A   Overcast
5:35 AM 44.6 °F 37.4 °F 41.0 °F 87% 29.66 in 10.0 mi SSW 16.1 mph 25.3 mph N/A   Overcast
5:48 AM 44.6 °F 36.6 °F 41.0 °F 87% 29.68 in 10.0 mi SSW 19.6 mph 25.3 mph N/A Rain Light Rain
5:58 AM 43.5 °F 35.8 °F 40.8 °F 90% 29.71 in 6.0 mi SSW 17.3 mph 26.5 mph 0.09 in   Overcast
6:13 AM 42.8 °F 35.4 °F 41.0 °F 93% 29.70 in 10.0 mi SSW 15.0 mph - N/A Rain Light Rain
6:17 AM 42.8 °F 36.2 °F 41.0 °F 93% 29.70 in 10.0 mi South 12.7 mph - N/A   Overcast
6:32 AM 42.8 °F 37.0 °F 41.0 °F 93% 29.72 in 10.0 mi SSW 10.4 mph - N/A   Overcast
6:37 AM 42.8 °F 36.6 °F 41.0 °F 93% 29.72 in 10.0 mi SSW 11.5 mph - N/A   Overcast
6:57 AM 42.8 °F 36.2 °F 41.0 °F 93% 29.74 in 10.0 mi SSW 12.7 mph - N/A   Scattered Clouds
6:58 AM 42.8 °F 36.6 °F 40.8 °F 93% 29.76 in 10.0 mi SSW 11.5 mph - 0.03 in   Scattered Clouds
7:53 AM 42.8 °F 35.1 °F 41.0 °F 93% 29.77 in 10.0 mi South 16.1 mph 20.7 mph N/A Rain Light Rain
7:58 AM 42.4 °F 34.7 °F 40.6 °F 93% 29.80 in 10.0 mi SSW 16.1 mph 20.7 mph 0.00 in Rain Light Rain
8:03 AM 42.8 °F 35.4 °F 39.2 °F 87% 29.78 in 10.0 mi South 15.0 mph - N/A   Scattered Clouds
8:05 AM 42.8 °F 34.8 °F 39.2 °F 87% 29.78 in 10.0 mi South 17.3 mph - N/A Rain Light Rain
8:22 AM 42.8 °F 37.0 °F 39.2 °F 87% 29.79 in 10.0 mi South 10.4 mph - N/A   Mostly Cloudy
8:58 AM 43.3 °F 38.1 °F 41.4 °F 93% 29.83 in 10.0 mi South 9.2 mph - 0.00 in   Overcast
9:04 AM 42.8 °F 38.0 °F 41.0 °F 93% 29.82 in 10.0 mi South 8.1 mph - N/A Rain Light Rain
9:50 AM 44.6 °F 38.8 °F 41.0 °F 87% 29.84 in 10.0 mi South 11.5 mph - N/A   Mostly Cloudy
9:58 AM 44.1 °F 37.7 °F 41.4 °F 90% 29.86 in 10.0 mi South 12.7 mph - 0.00 in   Mostly Cloudy
10:21 AM 44.6 °F 36.9 °F 41.0 °F 87% 29.86 in 10.0 mi South 18.4 mph - N/A Rain Light Rain
10:58 AM 43.0 °F 36.0 °F 40.6 °F 91% 29.89 in 8.0 mi South 13.8 mph - 0.02 in   Overcast
11:18 AM 42.8 °F 36.2 °F 41.0 °F 93% 29.88 in 10.0 mi South 12.7 mph - N/A Rain Light Rain
11:28 AM 42.8 °F 36.2 °F 41.0 °F 93% 29.88 in 10.0 mi SSW 12.7 mph - N/A   Overcast
11:29 AM 42.8 °F 36.6 °F 41.0 °F 93% 29.88 in 10.0 mi SSW 11.5 mph - N/A   Overcast
11:33 AM 42.8 °F 36.2 °F 41.0 °F 93% 29.89 in 10.0 mi SSW 12.7 mph - N/A Rain Light Rain
11:43 AM 42.8 °F 35.1 °F 41.0 °F 93% 29.89 in 10.0 mi South 16.1 mph 23.0 mph N/A Rain Light Rain
11:48 AM 42.8 °F 35.4 °F 41.0 °F 93% 29.89 in 10.0 mi South 15.0 mph 24.2 mph N/A Rain Light Rain
11:58 AM 43.5 °F 35.5 °F 40.8 °F 90% 29.91 in 10.0 mi SSW 18.4 mph 27.6 mph 0.02 in Rain Light Rain
12:00 PM 42.8 °F 34.8 °F 41.0 °F 93% 29.89 in 10.0 mi South 17.3 mph 27.6 mph N/A   Mostly Cloudy
12:10 PM 44.6 °F 38.1 °F 41.0 °F 87% 29.89 in 10.0 mi South 13.8 mph 23.0 mph N/A   Mostly Cloudy
12:31 PM 42.8 °F 35.1 °F 41.0 °F 93% 29.90 in 10.0 mi South 16.1 mph - N/A Rain Light Rain
12:43 PM 44.6 °F 39.2 °F 41.0 °F 87% 29.90 in 10.0 mi South 10.4 mph 20.7 mph N/A   Mostly Cloudy
12:58 PM 45.0 °F 38.5 °F 40.3 °F 84% 29.93 in 10.0 mi South 13.8 mph - 0.00 in   Scattered Clouds
1:26 PM 46.4 °F 38.3 °F 39.2 °F 76% 29.93 in 10.0 mi South 23.0 mph 28.8 mph N/A Rain Light Rain
1:36 PM 44.6 °F 35.9 °F 39.2 °F 81% 29.94 in 7.0 mi SSW 23.0 mph 41.4 mph N/A Rain Light Rain
1:55 PM 44.6 °F 37.8 °F 41.0 °F 87% 29.95 in 10.0 mi South 15.0 mph - N/A   Mostly Cloudy
1:58 PM 44.1 °F 37.4 °F 40.5 °F 87% 29.97 in 10.0 mi South 13.8 mph - 0.02 in   Mostly Cloudy
2:45 PM 44.6 °F 39.2 °F 41.0 °F 87% 29.99 in 10.0 mi SSW 10.4 mph 20.7 mph N/A Rain Light Rain
2:55 PM 44.6 °F 37.2 °F 41.0 °F 87% 29.99 in 10.0 mi SSW 17.3 mph 21.9 mph N/A   Overcast
2:58 PM 45.0 °F 38.2 °F 40.5 °F 84% 30.01 in 10.0 mi SSW 15.0 mph 21.9 mph 0.00 in   Overcast
3:17 PM 44.6 °F 38.8 °F 41.0 °F 87% 30.01 in 10.0 mi SSW 11.5 mph - N/A Rain Light Rain
3:52 PM 44.6 °F 39.7 °F 41.0 °F 87% 30.05 in 8.0 mi SSW 9.2 mph - N/A Rain Light Rain
3:55 PM 44.6 °F 38.1 °F 41.0 °F 87% 30.04 in 7.0 mi WSW 13.8 mph 23.0 mph N/A Rain Light Rain
3:58 PM 43.7 °F 38.1 °F 41.2 °F 91% 30.07 in 4.0 mi WSW 10.4 mph 23.0 mph 0.05 in Rain Rain
4:13 PM 42.8 °F 37.0 °F 39.2 °F 87% 30.06 in 10.0 mi SSW 10.4 mph - N/A Rain Light Rain
4:18 PM 42.8 °F 38.0 °F 41.0 °F 93% 30.06 in 10.0 mi SSW 8.1 mph - N/A Rain Light Rain
4:22 PM 42.8 °F 38.6 °F 41.0 °F 93% 30.07 in 10.0 mi SSW 6.9 mph - N/A   Mostly Cloudy
4:58 PM 42.6 °F 36.8 °F 40.5 °F 92% 30.11 in 10.0 mi SSW 10.4 mph - 0.02 in   Scattered Clouds
5:58 PM 41.2 °F 35.0 °F 39.7 °F 95% 30.14 in 10.0 mi South 10.4 mph - N/A   Scattered Clouds
6:58 PM 39.6 °F 32.5 °F 38.5 °F 96% 30.18 in 10.0 mi South 11.5 mph - N/A   Partly Cloudy
7:58 PM 39.0 °F 32.3 °F 37.9 °F 96% 30.22 in 10.0 mi South 10.4 mph - N/A   Clear
8:58 PM 38.3 °F 32.5 °F 37.0 °F 95% 30.26 in 10.0 mi South 8.1 mph - N/A   Partly Cloudy
9:58 PM 36.1 °F 29.9 °F 35.8 °F 99% 30.28 in 10.0 mi South 8.1 mph - N/A   Clear
10:58 PM 36.3 °F 31.6 °F 35.8 °F 98% 30.30 in 10.0 mi SSW 5.8 mph - N/A   Clear
11:58 PM 35.4 °F 31.5 °F 35.1 °F 99% 30.32 in 10.0 mi SSE 4.6 mph - N/A   Clear